Time;durP1;ratioP1;P1;durP2;ratioP2;P2;SDS_P1;SDS_P2;PMS_P1;PMS_P2;Temp;Humidity;BMP_temperature;BMP_pressure;BME280_temperature;BME280_humidity;BME280_pressure;Samples;Min_cycle;Max_cycle;Signal;HPM_P1;HPM_P2
2020/12/22 00:01:21;;;;;;;42.17;21.20;;;7.00;99.90;;;;;;5027805;28;20056;-74
2020/12/22 00:03:48;;;;;;;42.63;20.70;;;7.00;99.90;;;;;;5035147;28;20077;-74
2020/12/22 00:06:22;;;;;;;42.45;21.25;;;7.00;99.90;;;;;;5022592;28;20057;-73
2020/12/22 00:08:49;;;;;;;41.13;19.08;;;7.00;99.90;;;;;;5018200;28;20046;-73
2020/12/22 00:11:16;;;;;;;41.75;20.60;;;7.00;99.90;;;;;;5019071;28;20050;-73
2020/12/22 00:13:44;;;;;;;45.00;20.90;;;7.00;99.90;;;;;;5017015;28;20507;-73
2020/12/22 00:16:10;;;;;;;46.50;21.88;;;7.00;99.90;;;;;;5016296;28;20074;-73
2020/12/22 00:18:41;;;;;;;49.80;22.58;;;7.00;99.90;;;;;;5023623;28;20053;-73
2020/12/22 00:21:08;;;;;;;45.42;21.33;;;7.00;99.90;;;;;;5014643;28;20061;-72
2020/12/22 00:23:34;;;;;;;44.92;21.98;;;7.00;99.90;;;;;;5020457;28;20045;-71
2020/12/22 00:26:01;;;;;;;46.78;22.38;;;7.00;99.90;;;;;;5016733;28;20055;-72
2020/12/22 00:28:28;;;;;;;46.05;21.00;;;7.00;99.90;;;;;;5021496;28;20747;-71
2020/12/22 00:30:55;;;;;;;47.58;23.02;;;7.00;99.90;;;;;;5021229;28;20053;-71
2020/12/22 00:33:22;;;;;;;45.40;21.02;;;7.10;99.90;;;;;;5018853;28;20042;-72
2020/12/22 00:35:50;;;;;;;46.07;22.72;;;7.10;99.90;;;;;;5024681;28;1340725;-71
2020/12/22 00:38:17;;;;;;;46.42;22.92;;;7.10;99.90;;;;;;5019971;28;20085;-70
2020/12/22 00:40:43;;;;;;;45.92;21.63;;;7.10;99.90;;;;;;5017164;28;20060;-70
2020/12/22 00:43:16;;;;;;;50.13;23.13;;;7.10;99.90;;;;;;5018216;28;20795;-70
2020/12/22 00:45:43;;;;;;;46.53;22.10;;;7.20;99.90;;;;;;5021669;28;20053;-71
2020/12/22 00:48:11;;;;;;;51.25;24.00;;;7.10;99.90;;;;;;5022582;28;20457;-70
2020/12/22 00:50:37;;;;;;;52.88;24.88;;;7.10;99.90;;;;;;5019362;28;20045;-70
2020/12/22 00:53:04;;;;;;;56.78;25.20;;;7.10;99.90;;;;;;5022566;28;20046;-70
2020/12/22 00:55:31;;;;;;;53.38;25.95;;;7.20;99.90;;;;;;5021453;28;20417;-70
2020/12/22 00:57:58;;;;;;;59.80;26.45;;;7.20;99.90;;;;;;5022463;28;20045;-70
2020/12/22 01:00:24;;;;;;;54.65;25.60;;;7.20;99.90;;;;;;5022532;28;20052;-70
2020/12/22 01:02:51;;;;;;;61.75;26.63;;;7.20;99.90;;;;;;5023893;28;20111;-70
2020/12/22 01:05:18;;;;;;;57.08;25.50;;;7.20;99.90;;;;;;5021646;28;20059;-70
2020/12/22 01:07:45;;;;;;;52.05;23.60;;;7.20;99.90;;;;;;5017545;28;20053;-70
2020/12/22 01:10:12;;;;;;;57.85;25.27;;;7.30;99.90;;;;;;5021062;28;20104;-70
2020/12/22 01:12:43;;;;;;;57.95;25.48;;;7.20;99.90;;;;;;5023290;28;20414;-70
2020/12/22 01:15:10;;;;;;;54.35;24.80;;;7.30;99.90;;;;;;5022809;28;20056;-70
2020/12/22 01:17:37;;;;;;;53.58;23.27;;;7.30;99.90;;;;;;5022196;28;20046;-70
2020/12/22 01:20:04;;;;;;;58.50;25.50;;;7.30;99.90;;;;;;5020024;28;20062;-70
2020/12/22 01:22:32;;;;;;;59.22;26.20;;;7.30;99.90;;;;;;5023685;28;20049;-71
2020/12/22 01:24:59;;;;;;;56.08;25.25;;;7.30;99.90;;;;;;5020257;28;20061;-71
2020/12/22 01:27:25;;;;;;;56.75;25.23;;;7.30;99.90;;;;;;5021202;28;20046;-70
2020/12/22 01:29:52;;;;;;;57.63;25.63;;;7.30;99.90;;;;;;5022651;28;20046;-70
2020/12/22 01:32:19;;;;;;;54.80;24.92;;;7.30;99.90;;;;;;5018284;28;20107;-70
2020/12/22 01:34:46;;;;;;;58.55;24.92;;;7.40;99.90;;;;;;5022396;28;20049;-70
2020/12/22 01:37:13;;;;;;;55.65;21.98;;;7.30;99.90;;;;;;5019961;28;20045;-71
2020/12/22 01:39:41;;;;;;;57.22;24.77;;;7.40;99.90;;;;;;5020675;28;20060;-71
2020/12/22 01:42:09;;;;;;;51.22;24.27;;;7.30;99.90;;;;;;5021770;28;20045;-71
2020/12/22 01:44:37;;;;;;;56.60;25.05;;;7.40;99.90;;;;;;5021571;28;20049;-71
2020/12/22 01:47:04;;;;;;;55.58;24.42;;;7.40;99.90;;;;;;5015944;28;20057;-71
2020/12/22 01:49:31;;;;;;;52.13;23.13;;;7.40;99.90;;;;;;5022382;28;20046;-71
2020/12/22 01:51:59;;;;;;;57.45;24.05;;;7.40;99.90;;;;;;5021756;28;20050;-71
2020/12/22 01:54:26;;;;;;;51.22;21.83;;;7.40;99.90;;;;;;5017996;28;20052;-71
2020/12/22 01:56:54;;;;;;;62.80;24.88;;;7.40;99.90;;;;;;5019002;28;20525;-71
2020/12/22 01:59:21;;;;;;;63.53;24.23;;;7.40;99.90;;;;;;5018932;28;20049;-71
2020/12/22 02:01:51;;;;;;;58.72;24.60;;;7.40;99.90;;;;;;5018017;28;20058;-70
2020/12/22 02:04:20;;;;;;;62.45;25.05;;;7.40;99.90;;;;;;5023245;28;20422;-70
2020/12/22 02:06:47;;;;;;;58.38;25.02;;;7.50;99.90;;;;;;5019329;28;20050;-70
2020/12/22 02:09:14;;;;;;;56.25;24.38;;;7.50;99.90;;;;;;5020719;28;20050;-70
2020/12/22 02:11:41;;;;;;;61.08;24.45;;;7.50;99.90;;;;;;5021331;28;20053;-70
2020/12/22 02:14:14;;;;;;;59.58;25.33;;;7.50;99.90;;;;;;5019661;28;20060;-70
2020/12/22 02:16:41;;;;;;;60.05;24.45;;;7.50;99.90;;;;;;5018278;28;20536;-70
2020/12/22 02:19:07;;;;;;;57.50;25.77;;;7.50;99.90;;;;;;5022416;28;20421;-70
2020/12/22 02:21:35;;;;;;;59.63;23.38;;;7.50;99.90;;;;;;5025500;28;20045;-70
2020/12/22 02:24:02;;;;;;;64.68;24.35;;;7.60;99.90;;;;;;5019834;28;20045;-70
2020/12/22 02:26:31;;;;;;;57.70;24.05;;;7.60;99.90;;;;;;5015959;28;20498;-71
2020/12/22 02:28:57;;;;;;;56.88;23.92;;;7.60;99.90;;;;;;5018988;28;20065;-70
2020/12/22 02:31:25;;;;;;;62.13;23.92;;;7.60;99.90;;;;;;5019958;28;20053;-70
2020/12/22 02:33:52;;;;;;;50.08;22.45;;;7.60;99.90;;;;;;5014543;28;20050;-70
2020/12/22 02:36:19;;;;;;;53.38;23.23;;;7.70;99.90;;;;;;5019803;28;20552;-70
2020/12/22 02:38:47;;;;;;;66.20;25.33;;;7.60;99.90;;;;;;5016718;28;20045;-70
2020/12/22 02:41:13;;;;;;;53.90;22.45;;;7.70;99.90;;;;;;5015005;28;20057;-70
2020/12/22 02:43:40;;;;;;;51.22;23.05;;;7.70;99.90;;;;;;5021123;28;20045;-70
2020/12/22 02:46:07;;;;;;;50.92;22.30;;;7.70;99.90;;;;;;5021268;28;20049;-70
2020/12/22 02:48:34;;;;;;;51.35;21.92;;;7.70;99.90;;;;;;5018304;28;20049;-70
2020/12/22 02:51:01;;;;;;;52.00;22.83;;;7.70;99.90;;;;;;5020183;28;20050;-71
2020/12/22 02:53:27;;;;;;;55.33;23.38;;;7.70;99.90;;;;;;5018157;28;20068;-70
2020/12/22 02:55:55;;;;;;;50.33;21.98;;;7.70;99.90;;;;;;5018912;28;20045;-71
2020/12/22 02:58:22;;;;;;;50.47;21.67;;;7.80;99.90;;;;;;5022416;28;20050;-70
2020/12/22 03:00:49;;;;;;;52.63;23.17;;;7.80;99.90;;;;;;5019571;28;20037;-70
2020/12/22 03:03:16;;;;;;;50.80;21.38;;;7.80;99.90;;;;;;5018195;28;20048;-70
2020/12/22 03:05:42;;;;;;;48.92;21.45;;;7.80;99.90;;;;;;5016351;28;20058;-70
2020/12/22 03:08:10;;;;;;;49.28;21.65;;;7.90;99.90;;;;;;5022698;28;20057;-70
2020/12/22 03:10:37;;;;;;;51.55;22.58;;;7.90;99.90;;;;;;5020249;28;20048;-70
2020/12/22 03:13:04;;;;;;;49.47;22.63;;;7.90;99.90;;;;;;5016742;28;20049;-70
2020/12/22 03:15:31;;;;;;;48.35;21.65;;;8.00;99.90;;;;;;5019340;28;20069;-70
2020/12/22 03:17:58;;;;;;;49.83;21.48;;;7.90;99.90;;;;;;5019502;28;20056;-69
2020/12/22 03:20:25;;;;;;;49.88;21.83;;;8.00;99.90;;;;;;5019555;28;20045;-70
2020/12/22 03:22:52;;;;;;;46.38;20.30;;;8.10;99.90;;;;;;5019089;28;20079;-70
2020/12/22 03:25:19;;;;;;;57.38;21.92;;;8.10;99.90;;;;;;5020773;28;20045;-70
2020/12/22 03:27:46;;;;;;;48.42;21.10;;;8.10;99.90;;;;;;5018464;28;20042;-70
2020/12/22 03:30:15;;;;;;;49.53;21.73;;;8.10;99.90;;;;;;5016933;28;20415;-70
2020/12/22 03:32:42;;;;;;;42.95;20.42;;;8.10;99.90;;;;;;5021367;28;20049;-69
2020/12/22 03:35:10;;;;;;;47.92;20.65;;;8.10;99.90;;;;;;5019205;28;20049;-70
2020/12/22 03:37:38;;;;;;;50.35;21.27;;;8.20;99.90;;;;;;5018260;28;20061;-69
2020/12/22 03:40:06;;;;;;;51.05;22.42;;;8.20;99.90;;;;;;5018667;28;20422;-70
2020/12/22 03:42:33;;;;;;;47.03;20.67;;;8.20;99.90;;;;;;5009409;28;20050;-70
2020/12/22 03:45:00;;;;;;;49.95;21.15;;;8.30;99.90;;;;;;5010380;28;20081;-70
2020/12/22 03:47:29;;;;;;;44.75;19.38;;;8.30;99.90;;;;;;5010317;28;20070;-70
2020/12/22 03:49:55;;;;;;;42.95;18.10;;;8.30;99.90;;;;;;5029684;28;20049;-70
2020/12/22 03:52:22;;;;;;;36.20;16.70;;;8.40;99.90;;;;;;5029295;28;20532;-70
2020/12/22 03:54:49;;;;;;;36.35;15.48;;;8.50;99.90;;;;;;5029495;28;20053;-70
2020/12/22 03:57:16;;;;;;;32.58;14.75;;;8.60;99.90;;;;;;5029922;28;20568;-70
2020/12/22 03:59:43;;;;;;;34.72;14.48;;;8.70;99.90;;;;;;5029061;28;20150;-70
2020/12/22 04:02:10;;;;;;;27.92;14.20;;;8.80;99.90;;;;;;5029393;28;20060;-70
2020/12/22 04:04:38;;;;;;;27.58;12.98;;;8.80;99.90;;;;;;5029049;28;20634;-70
2020/12/22 04:07:05;;;;;;;26.33;12.88;;;8.90;99.90;;;;;;5029939;28;20755;-70
2020/12/22 04:09:31;;;;;;;25.00;11.50;;;8.90;99.90;;;;;;5029597;28;20056;-70
2020/12/22 04:11:58;;;;;;;21.02;10.90;;;8.90;99.90;;;;;;5028415;28;20057;-70
2020/12/22 04:14:25;;;;;;;19.65;8.80;;;9.10;99.90;;;;;;5029860;28;20049;-70
2020/12/22 04:16:51;;;;;;;18.13;8.38;;;9.20;99.90;;;;;;5028442;28;20510;-70
2020/12/22 04:19:18;;;;;;;16.52;7.75;;;9.30;99.90;;;;;;5030132;28;20045;-70
2020/12/22 04:21:47;;;;;;;8.68;4.72;;;9.40;99.90;;;;;;5029690;28;20050;-70
2020/12/22 04:24:14;;;;;;;7.78;3.47;;;9.60;99.90;;;;;;5039482;28;20053;-70
2020/12/22 04:26:41;;;;;;;9.00;4.95;;;9.80;99.90;;;;;;5036891;28;20058;-70
2020/12/22 04:29:07;;;;;;;10.70;5.68;;;9.80;99.90;;;;;;5028877;28;20053;-70
2020/12/22 04:31:37;;;;;;;10.40;5.40;;;9.70;99.90;;;;;;5029402;28;20079;-70
2020/12/22 04:34:04;;;;;;;10.88;5.78;;;9.70;99.90;;;;;;5029199;28;20058;-70
2020/12/22 04:36:31;;;;;;;12.35;5.40;;;9.70;99.90;;;;;;5029065;28;20042;-70
2020/12/22 04:38:58;;;;;;;10.70;6.00;;;9.70;99.90;;;;;;5029637;28;20118;-70
2020/12/22 04:41:25;;;;;;;9.70;5.30;;;9.70;99.90;;;;;;5028281;28;20055;-70
2020/12/22 04:43:53;;;;;;;8.57;3.80;;;9.70;99.90;;;;;;5029555;28;20133;-70
2020/12/22 04:46:21;;;;;;;10.85;3.97;;;9.70;99.90;;;;;;5028626;28;20053;-70
2020/12/22 04:48:53;;;;;;;10.35;3.67;;;9.90;99.90;;;;;;5029357;28;20127;-70
2020/12/22 04:51:20;;;;;;;7.10;3.50;;;9.90;99.90;;;;;;5029008;28;20052;-70
2020/12/22 04:53:47;;;;;;;5.55;2.92;;;10.00;99.90;;;;;;5028402;28;20046;-70
2020/12/22 04:56:15;;;;;;;8.52;3.50;;;10.00;99.90;;;;;;5029435;28;20056;-70
2020/12/22 04:58:42;;;;;;;5.97;2.38;;;10.10;99.90;;;;;;5027565;28;20088;-71
2020/12/22 05:01:09;;;;;;;5.35;2.45;;;10.10;99.90;;;;;;5028557;28;20049;-70
2020/12/22 05:03:35;;;;;;;5.00;2.28;;;10.10;99.90;;;;;;5028284;28;20056;-70
2020/12/22 05:06:02;;;;;;;5.20;2.47;;;10.10;99.90;;;;;;5029172;28;20513;-70
2020/12/22 05:08:29;;;;;;;5.80;2.92;;;10.10;99.90;;;;;;5029083;28;20055;-70
2020/12/22 05:10:56;;;;;;;6.70;3.20;;;10.10;99.90;;;;;;5027577;28;20056;-70
2020/12/22 05:13:23;;;;;;;5.50;2.70;;;10.10;99.90;;;;;;5029064;28;20050;-70
2020/12/22 05:15:52;;;;;;;6.32;3.17;;;10.10;99.90;;;;;;5028181;28;20140;-70
2020/12/22 05:18:23;;;;;;;10.82;4.28;;;10.10;99.90;;;;;;5028847;28;20110;-70
2020/12/22 05:20:50;;;;;;;7.70;3.35;;;10.10;99.90;;;;;;5028040;28;20049;-70
2020/12/22 05:23:18;;;;;;;7.00;3.45;;;10.00;99.90;;;;;;5028082;28;20099;-70
2020/12/22 05:25:49;;;;;;;8.95;3.78;;;10.00;99.90;;;;;;5028934;28;20049;-70
2020/12/22 05:28:16;;;;;;;9.68;4.95;;;10.10;99.90;;;;;;5028990;28;20050;-70
2020/12/22 05:30:45;;;;;;;10.50;4.60;;;10.00;99.90;;;;;;5032076;28;20437;-70
2020/12/22 05:33:12;;;;;;;9.57;4.82;;;10.00;99.90;;;;;;5022163;28;20054;-70
2020/12/22 05:35:41;;;;;;;8.85;4.85;;;9.90;99.90;;;;;;5012936;28;20050;-70
2020/12/22 05:38:07;;;;;;;8.75;4.95;;;10.00;99.90;;;;;;5012228;28;20057;-70
2020/12/22 05:40:35;;;;;;;10.02;4.95;;;10.00;99.90;;;;;;5011417;28;20054;-70
2020/12/22 05:43:02;;;;;;;8.50;4.13;;;10.00;99.90;;;;;;5012370;28;20051;-70
2020/12/22 05:45:32;;;;;;;7.28;4.20;;;10.00;99.90;;;;;;5011593;28;20069;-70
2020/12/22 05:48:00;;;;;;;9.02;4.38;;;10.00;99.90;;;;;;5012166;28;20050;-70
2020/12/22 05:50:27;;;;;;;7.75;4.03;;;10.00;99.90;;;;;;5015501;28;20491;-70
2020/12/22 05:52:59;;;;;;;8.52;4.05;;;10.10;99.90;;;;;;5031671;28;20054;-70
2020/12/22 05:55:27;;;;;;;8.15;4.13;;;10.10;99.90;;;;;;5031874;28;20498;-70
2020/12/22 05:58:09;;;;;;;8.02;3.95;;;10.10;99.90;;;;;;5028490;28;20045;-70
2020/12/22 06:00:37;;;;;;;10.70;4.07;;;10.00;99.90;;;;;;5026744;28;20049;-70
2020/12/22 06:03:10;;;;;;;6.90;3.58;;;10.10;99.90;;;;;;5026121;28;20076;-70
2020/12/22 06:05:41;;;;;;;7.00;3.60;;;10.10;99.90;;;;;;5031935;28;20061;-70
2020/12/22 06:08:09;;;;;;;6.75;3.75;;;10.10;99.90;;;;;;5031048;28;20049;-70
2020/12/22 06:10:37;;;;;;;6.43;3.50;;;10.10;99.90;;;;;;5030146;28;20049;-70
2020/12/22 06:13:05;;;;;;;7.78;4.43;;;10.00;99.90;;;;;;5031447;28;20053;-70
2020/12/22 06:15:32;;;;;;;13.40;4.57;;;10.00;99.90;;;;;;5030093;28;20425;-70
2020/12/22 06:17:59;;;;;;;6.78;3.70;;;10.10;99.90;;;;;;5031553;28;20061;-70
2020/12/22 06:20:28;;;;;;;9.93;3.78;;;10.00;99.90;;;;;;5030222;28;20083;-70
2020/12/22 06:23:02;;;;;;;5.72;3.17;;;10.10;99.90;;;;;;5033144;28;20414;-70
2020/12/22 06:25:29;;;;;;;2.17;1.23;;;10.30;99.90;;;;;;5034278;28;20049;-70
2020/12/22 06:27:57;;;;;;;4.97;1.92;;;10.40;99.90;;;;;;5033798;28;20046;-70
2020/12/22 06:30:34;;;;;;;3.05;1.52;;;10.40;99.90;;;;;;5030891;28;20053;-70
2020/12/22 06:33:18;;;;;;;1.92;1.10;;;10.40;99.90;;;;;;5023142;28;20049;-70
2020/12/22 06:36:04;;;;;;;1.63;1.00;;;10.50;99.90;;;;;;5031043;28;20052;-70
2020/12/22 06:39:02;;;;;;;1.00;0.90;;;10.60;99.90;;;;;;5030231;28;20049;-70
2020/12/22 06:41:46;;;;;;;4.32;0.93;;;10.80;99.90;;;;;;5027206;28;20081;-70
2020/12/22 06:44:15;;;;;;;1.10;0.70;;;10.90;99.90;;;;;;5019644;28;20058;-70
2020/12/22 06:46:43;;;;;;;1.33;0.70;;;10.90;99.90;;;;;;5020345;28;20054;-70
2020/12/22 06:49:13;;;;;;;1.40;0.90;;;11.00;99.90;;;;;;5021577;28;20058;-69
2020/12/22 06:51:42;;;;;;;2.47;0.80;;;11.00;99.90;;;;;;5019406;28;20049;-70
2020/12/22 06:54:33;;;;;;;1.42;1.00;;;11.10;99.90;;;;;;5021415;28;20092;-69
2020/12/22 06:57:00;;;;;;;1.30;0.90;;;11.10;99.90;;;;;;5018285;28;20095;-69
2020/12/22 06:59:48;;;;;;;2.20;0.85;;;11.10;99.90;;;;;;5025101;28;20502;-70
2020/12/22 07:02:32;;;;;;;3.83;1.67;;;11.20;99.90;;;;;;5017869;28;20521;-69
2020/12/22 07:04:59;;;;;;;4.28;1.00;;;11.20;99.90;;;;;;5026641;28;20057;-69
2020/12/22 07:07:47;;;;;;;1.48;0.80;;;11.10;99.90;;;;;;5029326;28;20092;-69
2020/12/22 07:10:16;;;;;;;2.15;0.90;;;11.20;99.90;;;;;;5029326;28;20053;-69
2020/12/22 07:12:44;;;;;;;3.25;1.15;;;11.30;99.90;;;;;;5029285;28;20079;-69
2020/12/22 07:15:11;;;;;;;0.88;0.70;;;11.20;99.90;;;;;;5030261;28;20054;-69
2020/12/22 07:17:38;;;;;;;1.92;1.13;;;11.40;99.90;;;;;;5029803;28;20075;-69
2020/12/22 07:20:05;;;;;;;3.22;0.70;;;11.40;99.90;;;;;;5029248;28;20057;-69
2020/12/22 07:22:33;;;;;;;0.50;0.50;;;11.40;99.90;;;;;;5010670;28;20064;-69
2020/12/22 07:25:01;;;;;;;3.55;0.98;;;11.40;99.90;;;;;;5009872;28;20569;-69
2020/12/22 07:27:28;;;;;;;1.85;1.00;;;11.50;99.90;;;;;;5010742;28;20058;-69
2020/12/22 07:29:55;;;;;;;1.52;0.60;;;11.50;99.90;;;;;;5009533;28;20046;-69
2020/12/22 07:32:24;;;;;;;2.40;0.63;;;11.60;99.90;;;;;;5011617;28;20054;-68
2020/12/22 07:34:50;;;;;;;1.67;0.70;;;11.50;99.90;;;;;;5009296;28;20104;-69
2020/12/22 07:37:17;;;;;;;0.80;0.57;;;11.50;99.90;;;;;;5010405;28;20057;-69
2020/12/22 07:39:45;;;;;;;0.93;0.63;;;11.50;99.90;;;;;;5011884;28;20136;-69
2020/12/22 07:42:13;;;;;;;4.15;0.70;;;11.60;99.90;;;;;;5009650;28;20054;-69
2020/12/22 07:44:41;;;;;;;4.53;0.60;;;11.60;99.90;;;;;;5010908;28;20119;-69
2020/12/22 07:47:15;;;;;;;1.17;0.73;;;11.60;99.90;;;;;;5010928;28;20104;-69
2020/12/22 07:49:43;;;;;;;2.83;0.63;;;11.60;99.90;;;;;;5011509;28;20050;-71
2020/12/22 07:52:16;;;;;;;0.98;0.50;;;11.60;99.90;;;;;;5026549;28;20434;-72
2020/12/22 07:54:44;;;;;;;1.80;0.50;;;11.60;99.90;;;;;;5030876;28;20160;-71
2020/12/22 07:57:12;;;;;;;0.95;0.40;;;11.50;99.90;;;;;;5030578;28;20098;-71
2020/12/22 07:59:41;;;;;;;4.03;0.75;;;11.60;99.90;;;;;;5030365;28;20148;-71
2020/12/22 08:02:08;;;;;;;0.95;0.40;;;11.60;99.90;;;;;;5030256;28;20056;-69
2020/12/22 08:04:35;;;;;;;0.90;0.60;;;11.60;99.90;;;;;;5029345;28;20135;-69
2020/12/22 08:07:05;;;;;;;0.90;0.40;;;11.50;99.90;;;;;;5029880;28;20144;-69
2020/12/22 08:09:35;;;;;;;1.05;0.50;;;11.60;99.90;;;;;;5029014;28;20502;-69
2020/12/22 08:14:41;;;;;;;1.33;0.50;;;11.70;99.90;;;;;;5032579;23;20107;-72
2020/12/22 08:17:12;;;;;;;3.47;0.40;;;11.70;99.90;;;;;;5014727;28;20056;-70
2020/12/22 08:19:41;;;;;;;0.98;0.50;;;11.80;99.90;;;;;;5007117;28;20045;-71
2020/12/22 08:22:08;;;;;;;2.13;0.30;;;11.70;99.90;;;;;;5004872;28;20140;-72
2020/12/22 08:24:37;;;;;;;0.45;0.20;;;11.80;99.90;;;;;;5007379;28;20057;-71
2020/12/22 08:27:07;;;;;;;0.93;0.63;;;11.80;99.90;;;;;;5005128;28;20421;-72
2020/12/22 08:29:37;;;;;;;1.75;0.25;;;11.80;99.90;;;;;;5006205;28;20060;-70
2020/12/22 08:32:05;;;;;;;2.75;0.40;;;11.80;99.90;;;;;;5022014;28;20057;-70
2020/12/22 08:34:32;;;;;;;0.20;0.20;;;11.80;99.90;;;;;;5029893;28;20053;-70
2020/12/22 08:37:07;;;;;;;1.80;0.40;;;11.80;99.90;;;;;;5029791;28;20069;-71
2020/12/22 08:39:39;;;;;;;0.20;0.20;;;11.80;99.90;;;;;;5029403;28;20057;-70
2020/12/22 08:42:09;;;;;;;0.43;0.30;;;11.90;99.90;;;;;;5022169;28;20050;-71
2020/12/22 08:44:36;;;;;;;0.50;0.30;;;11.90;99.90;;;;;;5009570;28;20046;-70
2020/12/22 08:47:21;;;;;;;0.55;0.30;;;11.90;99.90;;;;;;5010379;28;20103;-71
2020/12/22 08:49:49;;;;;;;0.65;0.25;;;12.10;99.90;;;;;;5009270;28;20059;-70
2020/12/22 08:52:16;;;;;;;0.73;0.30;;;12.00;99.90;;;;;;5010065;28;20053;-70
2020/12/22 08:54:44;;;;;;;1.20;0.40;;;12.10;99.90;;;;;;5009588;28;20053;-71
2020/12/22 08:57:12;;;;;;;0.17;0.17;;;12.20;99.90;;;;;;5008627;28;20058;-70
2020/12/22 08:59:39;;;;;;;0.80;0.47;;;12.20;99.90;;;;;;5009820;28;20049;-70
2020/12/22 09:02:06;;;;;;;2.53;0.43;;;12.10;99.90;;;;;;5008812;28;20118;-70
2020/12/22 09:04:34;;;;;;;0.40;0.20;;;12.10;99.90;;;;;;5012878;28;20986;-70
2020/12/22 09:07:11;;;;;;;1.25;0.43;;;12.10;99.90;;;;;;5012929;28;20050;-70
2020/12/22 09:09:37;;;;;;;;;;;12.10;99.90;;;;;;5013986;28;20050;-71
2020/12/22 09:12:06;;;;;;;0.55;0.30;;;12.10;99.90;;;;;;5014487;28;19921;-70
2020/12/22 09:14:40;;;;;;;1.05;0.40;;;12.00;99.90;;;;;;5014088;28;20161;-70
2020/12/22 09:17:07;;;;;;;0.68;0.35;;;12.10;99.90;;;;;;5015452;28;20466;-71
2020/12/22 09:19:46;;;;;;;0.68;0.40;;;12.00;99.90;;;;;;5014010;28;20050;-70
2020/12/22 09:22:14;;;;;;;0.65;0.52;;;12.00;99.90;;;;;;5029365;28;20081;-70
2020/12/22 09:24:42;;;;;;;0.15;0.15;;;12.00;99.90;;;;;;5025698;28;20836;-72
2020/12/22 09:27:10;;;;;;;0.25;0.20;;;12.00;99.90;;;;;;5034935;28;20566;-70
2020/12/22 09:29:38;;;;;;;1.42;0.50;;;12.00;99.90;;;;;;5033914;28;20060;-70
2020/12/22 09:32:06;;;;;;;0.65;0.20;;;12.10;99.90;;;;;;5012028;28;20666;-70
2020/12/22 09:34:35;;;;;;;1.98;0.40;;;12.10;99.90;;;;;;5013095;28;20065;-70
2020/12/22 09:37:04;;;;;;;0.75;0.30;;;12.20;99.90;;;;;;5012285;28;20422;-70
2020/12/22 09:39:32;;;;;;;1.02;0.43;;;12.20;99.90;;;;;;5013188;28;20410;-71
2020/12/22 09:42:00;;;;;;;1.67;0.40;;;12.20;99.90;;;;;;5011454;28;20092;-72
2020/12/22 09:44:27;;;;;;;1.42;0.50;;;12.10;99.90;;;;;;5012673;28;20100;-70
2020/12/22 09:46:56;;;;;;;0.57;0.30;;;12.20;99.90;;;;;;5012921;28;20058;-70
2020/12/22 09:49:23;;;;;;;1.38;0.40;;;12.20;99.90;;;;;;5011800;28;20506;-70
2020/12/22 09:51:50;;;;;;;0.47;0.28;;;12.20;99.90;;;;;;5012570;28;20057;-72
2020/12/22 09:54:18;;;;;;;1.40;0.50;;;12.20;99.90;;;;;;5012099;28;20046;-71
2020/12/22 09:56:45;;;;;;;0.77;0.20;;;12.30;99.90;;;;;;5014488;28;20046;-70
2020/12/22 09:59:15;;;;;;;1.20;0.30;;;12.30;99.90;;;;;;5028883;28;20425;-68
2020/12/22 10:01:45;;;;;;;2.38;0.40;;;12.30;99.90;;;;;;5027171;28;20045;-70
2020/12/22 10:04:12;;;;;;;0.68;0.20;;;12.20;99.90;;;;;;5023206;28;20053;-68
2020/12/22 10:06:39;;;;;;;0.20;0.20;;;12.30;99.90;;;;;;5023675;28;20053;-69
2020/12/22 10:09:06;;;;;;;0.47;0.28;;;12.30;99.90;;;;;;5014970;28;20053;-69
2020/12/22 10:11:37;;;;;;;0.73;0.38;;;12.30;99.90;;;;;;5030126;28;20053;-69
2020/12/22 10:14:07;;;;;;;2.08;0.60;;;12.30;99.90;;;;;;5023088;28;20058;-69
2020/12/22 10:16:34;;;;;;;1.52;0.40;;;12.40;99.90;;;;;;5022892;28;20115;-71
2020/12/22 10:19:01;;;;;;;0.68;0.30;;;12.40;99.90;;;;;;5015469;28;20046;-70
2020/12/22 10:21:28;;;;;;;0.85;0.20;;;12.50;99.90;;;;;;5029252;28;20056;-69
2020/12/22 10:23:59;;;;;;;0.30;0.10;;;12.40;99.90;;;;;;5023818;28;20050;-71
2020/12/22 10:26:27;;;;;;;0.30;0.28;;;12.60;99.90;;;;;;5022458;28;20068;-71
2020/12/22 10:28:54;;;;;;;0.82;0.30;;;12.60;99.90;;;;;;5015525;28;20540;-70
2020/12/22 10:31:22;;;;;;;0.30;0.25;;;12.70;99.90;;;;;;5027210;28;20046;-69
2020/12/22 10:33:50;;;;;;;0.75;0.30;;;12.80;99.90;;;;;;5017073;28;20433;-71
2020/12/22 10:36:17;;;;;;;0.40;0.30;;;12.90;99.90;;;;;;5019882;28;20058;-70
2020/12/22 10:38:44;;;;;;;0.68;0.20;;;13.00;99.90;;;;;;5024577;28;20049;-70
2020/12/22 10:41:11;;;;;;;0.98;0.30;;;13.00;99.90;;;;;;5013113;28;20054;-71
2020/12/22 10:43:38;;;;;;;0.88;0.40;;;13.10;99.90;;;;;;5024635;28;20057;-71
2020/12/22 10:46:06;;;;;;;0.88;0.30;;;13.10;99.90;;;;;;5021253;28;20053;-70
2020/12/22 10:48:32;;;;;;;0.25;0.20;;;13.10;99.90;;;;;;5016980;28;20061;-70
2020/12/22 10:50:59;;;;;;;0.40;0.20;;;13.10;99.90;;;;;;5027265;28;20057;-68
2020/12/22 10:53:26;;;;;;;1.27;0.47;;;13.10;99.90;;;;;;5014681;28;20045;-68
2020/12/22 10:55:54;;;;;;;1.98;0.40;;;13.10;99.90;;;;;;5025299;28;20061;-68
2020/12/22 10:58:21;;;;;;;1.38;0.20;;;13.20;99.90;;;;;;5020755;28;20112;-68
2020/12/22 11:00:47;;;;;;;0.47;0.20;;;13.10;99.90;;;;;;5016034;28;20061;-69
2020/12/22 11:03:18;;;;;;;0.30;0.30;;;13.10;99.90;;;;;;5025364;28;20076;-69
2020/12/22 11:06:10;;;;;;;0.30;0.30;;;13.10;99.90;;;;;;5016797;28;20046;-70
2020/12/22 11:08:39;;;;;;;1.60;0.40;;;13.10;99.90;;;;;;5029259;28;20081;-68
2020/12/22 11:11:07;;;;;;;2.50;0.55;;;13.10;99.90;;;;;;5013126;28;20058;-72
2020/12/22 11:13:39;;;;;;;1.08;0.30;;;13.10;99.90;;;;;;5026285;28;20105;-72
2020/12/22 11:16:07;;;;;;;0.63;0.32;;;13.10;99.90;;;;;;5014629;28;20607;-70
2020/12/22 11:18:34;;;;;;;2.67;0.40;;;13.10;99.90;;;;;;5018697;28;20061;-70
2020/12/22 11:21:01;;;;;;;0.85;0.35;;;13.20;99.90;;;;;;5025753;28;20171;-69
2020/12/22 11:23:28;;;;;;;1.08;0.50;;;13.10;99.90;;;;;;5013586;28;20386;-69
2020/12/22 11:25:57;;;;;;;0.82;0.60;;;13.10;99.90;;;;;;5021406;28;20510;-69
2020/12/22 11:28:24;;;;;;;0.60;0.40;;;13.10;99.90;;;;;;5021048;28;20053;-70
2020/12/22 11:30:51;;;;;;;0.77;0.38;;;13.20;99.90;;;;;;5016213;28;20502;-70
2020/12/22 11:33:17;;;;;;;1.30;0.50;;;13.20;99.90;;;;;;5013035;28;20506;-68
2020/12/22 11:35:51;;;;;;;0.52;0.45;;;13.10;99.90;;;;;;5029990;28;20053;-69
2020/12/22 11:38:18;;;;;;;0.50;0.40;;;13.10;99.90;;;;;;5018848;28;20050;-68
2020/12/22 11:40:48;;;;;;;0.82;0.45;;;13.20;99.90;;;;;;5009758;28;20473;-67
2020/12/22 11:43:16;;;;;;;1.42;0.52;;;13.20;99.90;;;;;;5010279;28;20060;-68
2020/12/22 11:45:43;;;;;;;0.95;0.57;;;13.20;99.90;;;;;;5012433;28;20148;-65
2020/12/22 11:48:10;;;;;;;0.80;0.40;;;13.30;99.90;;;;;;5021772;28;20065;-67
2020/12/22 11:50:36;;;;;;;1.98;0.80;;;13.30;99.90;;;;;;5022817;28;20176;-71
2020/12/22 11:53:04;;;;;;;1.27;0.57;;;13.20;99.90;;;;;;5029261;28;20057;-72
2020/12/22 11:55:31;;;;;;;3.70;1.38;;;13.20;99.90;;;;;;5027284;28;20509;-73
2020/12/22 11:57:57;;;;;;;2.45;0.88;;;13.20;99.90;;;;;;5014961;28;20068;-70
2020/12/22 12:00:24;;;;;;;2.28;0.80;;;13.20;99.90;;;;;;5028092;28;20053;-72
2020/12/22 12:02:51;;;;;;;2.63;1.48;;;13.20;99.90;;;;;;5017018;28;20046;-71
2020/12/22 12:05:18;;;;;;;6.40;2.60;;;13.20;99.90;;;;;;5024867;28;20060;-70
2020/12/22 12:07:45;;;;;;;1.17;0.80;;;13.20;99.90;;;;;;5029019;28;20053;-67
2020/12/22 12:10:12;;;;;;;1.20;0.55;;;13.20;99.90;;;;;;5028168;28;20054;-69
2020/12/22 12:12:39;;;;;;;1.05;0.60;;;13.20;99.90;;;;;;5029675;28;20054;-68
2020/12/22 12:15:06;;;;;;;2.28;0.90;;;13.30;99.90;;;;;;5029629;28;20058;-68
2020/12/22 12:17:33;;;;;;;2.30;0.65;;;13.30;99.90;;;;;;5028571;28;20049;-67
2020/12/22 12:19:59;;;;;;;1.83;0.95;;;13.30;99.90;;;;;;5029700;28;20140;-67
2020/12/22 12:22:26;;;;;;;0.80;0.55;;;13.30;99.90;;;;;;5027929;28;20049;-67
2020/12/22 12:24:53;;;;;;;3.90;0.60;;;13.30;99.90;;;;;;5029919;28;20053;-67
2020/12/22 12:27:20;;;;;;;0.73;0.50;;;13.30;99.90;;;;;;5028793;28;20055;-67
2020/12/22 12:29:47;;;;;;;0.80;0.40;;;13.30;99.90;;;;;;5029695;28;20053;-67
2020/12/22 12:32:13;;;;;;;1.75;0.47;;;13.30;99.90;;;;;;5029054;28;20065;-70
2020/12/22 12:34:40;;;;;;;3.30;0.85;;;13.30;99.90;;;;;;5028688;28;20534;-67
2020/12/22 12:37:07;;;;;;;0.80;0.45;;;13.30;99.90;;;;;;5030043;28;20057;-67
2020/12/22 12:39:34;;;;;;;0.95;0.63;;;13.20;99.90;;;;;;5032888;28;20057;-67
2020/12/22 12:42:01;;;;;;;1.98;0.60;;;13.30;99.90;;;;;;5033021;28;20501;-67
2020/12/22 12:44:29;;;;;;;1.88;0.60;;;13.40;99.90;;;;;;5032656;28;20111;-67
2020/12/22 12:46:56;;;;;;;0.75;0.43;;;13.40;99.90;;;;;;5033358;28;20520;-67
2020/12/22 12:49:22;;;;;;;1.13;0.60;;;13.40;99.90;;;;;;5033298;28;20382;-67
2020/12/22 12:51:49;;;;;;;0.75;0.40;;;13.40;99.90;;;;;;5030796;28;20060;-67